createdAt,value
2019-02-03T00:03:13.190Z,134.15
2019-02-03T00:05:40.607Z,136.75
2019-02-03T00:08:08.045Z,133.18
2019-02-03T00:10:35.890Z,138.30
2019-02-03T00:13:03.454Z,135.10
2019-02-03T00:18:13.183Z,130.80
2019-02-03T00:20:41.395Z,132.90
2019-02-03T00:23:08.802Z,147.10
2019-02-03T00:25:37.027Z,134.90
2019-02-03T00:28:04.510Z,143.43
2019-02-03T00:30:31.937Z,154.63
2019-02-03T00:33:00.144Z,136.60
2019-02-03T00:35:27.886Z,138.57
2019-02-03T00:37:55.467Z,139.77
2019-02-03T00:40:23.021Z,135.50
2019-02-03T00:42:50.419Z,136.35
2019-02-03T00:45:17.928Z,139.25
2019-02-03T00:47:45.669Z,139.77
2019-02-03T00:50:14.395Z,125.55
2019-02-03T00:52:41.897Z,146.22
2019-02-03T00:55:11.023Z,149.85
2019-02-03T00:57:38.435Z,150.20
2019-02-03T01:00:07.686Z,144.02
2019-02-03T01:02:35.175Z,137.70
2019-02-03T01:05:02.696Z,135.10
2019-02-03T01:07:30.212Z,144.28
2019-02-03T01:09:57.965Z,128.32
2019-02-03T01:12:25.492Z,152.00
2019-02-03T01:14:52.907Z,146.68
2019-02-03T01:17:20.549Z,131.37
2019-02-03T01:19:48.022Z,138.97
2019-02-03T01:22:15.569Z,138.55
2019-02-03T01:24:42.999Z,136.55
2019-02-03T01:27:10.572Z,139.22
2019-02-03T01:29:38.167Z,151.10
2019-02-03T01:32:05.649Z,144.30
2019-02-03T01:34:33.191Z,146.35
2019-02-03T01:37:00.634Z,146.30
2019-02-03T01:39:28.259Z,141.03
2019-02-03T01:41:55.698Z,139.95
2019-02-03T01:44:23.362Z,152.38
2019-02-03T01:46:53.170Z,157.25
2019-02-03T01:49:20.707Z,132.87
2019-02-03T01:51:48.256Z,149.72
2019-02-03T01:54:15.774Z,151.00
2019-02-03T01:56:43.195Z,157.67
2019-02-03T01:59:10.780Z,146.02
2019-02-03T02:01:38.395Z,141.07
2019-02-03T02:04:06.099Z,142.77
2019-02-03T02:06:33.659Z,146.05
2019-02-03T02:09:01.209Z,148.68
2019-02-03T02:11:28.643Z,148.62
2019-02-03T02:13:56.059Z,156.28
2019-02-03T02:16:23.687Z,152.12
2019-02-03T02:18:51.318Z,153.47
2019-02-03T02:21:18.863Z,148.40
2019-02-03T02:23:46.300Z,139.92
2019-02-03T02:26:13.881Z,140.97
2019-02-03T02:28:41.442Z,154.85
2019-02-03T02:31:09.053Z,141.70
2019-02-03T02:33:36.498Z,138.80
2019-02-03T02:36:04.699Z,144.45
2019-02-03T02:38:32.165Z,132.70
2019-02-03T02:40:59.582Z,143.82
2019-02-03T02:43:27.129Z,152.72
2019-02-03T02:45:54.646Z,147.32
2019-02-03T02:48:22.245Z,138.75
2019-02-03T02:50:49.745Z,121.75
2019-02-03T02:53:17.170Z,139.03
2019-02-03T02:55:44.698Z,123.53
2019-02-03T02:58:12.284Z,143.62
2019-02-03T03:00:39.744Z,132.60
2019-02-03T03:03:07.320Z,145.68
2019-02-03T03:05:34.775Z,138.03
2019-02-03T03:08:03.177Z,145.00
2019-02-03T03:10:30.741Z,124.95
2019-02-03T03:12:58.228Z,151.25
2019-02-03T03:15:25.861Z,135.57
2019-02-03T03:17:53.595Z,138.25
2019-02-03T03:20:21.571Z,138.07
2019-02-03T03:22:49.577Z,135.85
2019-02-03T03:25:20.909Z,148.30
2019-02-03T03:27:48.403Z,143.45
2019-02-03T03:30:17.384Z,146.37
2019-02-03T03:32:45.094Z,145.62
2019-02-03T03:35:12.612Z,151.07
2019-02-03T03:37:43.656Z,149.07
2019-02-03T03:40:12.647Z,151.00
2019-02-03T03:42:40.112Z,135.95
2019-02-03T03:45:09.050Z,138.90
2019-02-03T03:47:36.706Z,148.28
2019-02-03T03:50:05.824Z,142.77
2019-02-03T03:52:33.623Z,131.65
2019-02-03T03:55:01.130Z,136.32
2019-02-03T03:57:28.587Z,135.95
2019-02-03T03:59:56.590Z,140.60
2019-02-03T04:02:24.092Z,122.50
2019-02-03T04:04:51.571Z,143.45
2019-02-03T04:07:19.191Z,145.43
2019-02-03T04:09:49.505Z,134.18
2019-02-03T04:12:16.939Z,143.40
2019-02-03T04:14:44.392Z,140.12
2019-02-03T04:17:11.810Z,130.32
2019-02-03T04:19:39.236Z,143.05
2019-02-03T04:22:06.683Z,137.92
2019-02-03T04:24:34.211Z,140.30
2019-02-03T04:27:01.651Z,135.18
2019-02-03T04:29:29.079Z,126.67
2019-02-03T04:31:56.537Z,130.93
2019-02-03T04:34:23.962Z,128.23
2019-02-03T04:36:51.559Z,136.90
2019-02-03T04:39:19.387Z,145.87
2019-02-03T04:41:46.803Z,133.85
2019-02-03T04:44:14.438Z,124.85
2019-02-03T04:46:41.866Z,133.10
2019-02-03T04:49:09.315Z,137.57
2019-02-03T04:51:36.817Z,130.65
2019-02-03T04:54:04.606Z,127.17
2019-02-03T04:56:32.073Z,124.95
2019-02-03T04:58:59.503Z,139.60
2019-02-03T05:01:26.928Z,133.25
2019-02-03T05:03:54.414Z,143.60
2019-02-03T05:06:21.900Z,135.80
2019-02-03T05:08:49.464Z,137.82
2019-02-03T05:11:17.222Z,129.27
2019-02-03T05:13:44.595Z,126.97
2019-02-03T05:16:12.025Z,125.85
2019-02-03T05:18:39.488Z,112.22
2019-02-03T05:21:07.050Z,120.53
2019-02-03T05:23:34.517Z,117.08
2019-02-03T05:26:02.029Z,138.22
2019-02-03T05:28:29.707Z,121.95
2019-02-03T05:30:57.392Z,114.20
2019-02-03T05:33:24.834Z,113.45
2019-02-03T05:35:52.262Z,123.02
2019-02-03T05:38:19.716Z,126.82
2019-02-03T05:40:47.308Z,101.92
2019-02-03T05:43:14.684Z,115.75
2019-02-03T05:45:42.112Z,111.40
2019-02-03T05:48:09.530Z,106.17
2019-02-03T05:50:36.935Z,122.45
2019-02-03T05:53:04.490Z,125.65
2019-02-03T05:55:31.903Z,103.50
2019-02-03T05:57:59.456Z,119.67
2019-02-03T06:00:29.655Z,123.62
2019-02-03T06:02:57.151Z,127.38
2019-02-03T06:05:24.642Z,117.28
2019-02-03T06:07:52.100Z,108.78
2019-02-03T06:10:19.891Z,122.35
2019-02-03T06:12:47.299Z,125.18
2019-02-03T06:15:15.242Z,130.97
2019-02-03T06:17:42.699Z,117.80
2019-02-03T06:20:29.467Z,128.30
2019-02-03T06:22:56.941Z,105.63
2019-02-03T06:25:24.372Z,106.12
2019-02-03T06:27:51.979Z,115.60
2019-02-03T06:30:38.732Z,102.42
2019-02-03T06:33:06.159Z,95.38
2019-02-03T06:35:33.616Z,103.87
2019-02-03T06:38:01.548Z,96.60
2019-02-03T06:40:28.941Z,94.87
2019-02-03T06:42:56.473Z,95.22
2019-02-03T06:45:43.184Z,103.55
2019-02-03T06:50:58.726Z,106.20
2019-02-03T06:53:26.136Z,102.62
2019-02-03T06:55:53.539Z,92.92
2019-02-03T06:58:20.964Z,95.28
2019-02-03T07:00:48.376Z,80.95
2019-02-03T07:03:15.809Z,103.85
2019-02-03T07:05:43.216Z,106.37
2019-02-03T07:08:10.643Z,100.90
2019-02-03T07:10:38.086Z,187.88
2019-02-03T07:13:05.644Z,104.43
2019-02-03T07:15:33.120Z,152.82
2019-02-03T07:18:02.178Z,114.35
2019-02-03T07:20:29.598Z,170.47
2019-02-03T07:22:57.036Z,127.05
2019-02-03T07:25:24.436Z,122.70
2019-02-03T07:27:52.011Z,105.97
2019-02-03T07:33:12.796Z,122.33
2019-02-03T07:35:40.222Z,91.75
2019-02-03T07:38:10.460Z,111.92
2019-02-03T07:40:36.717Z,99.58
2019-02-03T07:43:04.165Z,95.85
2019-02-03T07:45:31.566Z,111.28
2019-02-03T07:47:58.965Z,87.33
2019-02-03T07:50:26.433Z,88.42
2019-02-03T07:52:53.833Z,87.85
2019-02-03T07:55:21.233Z,82.55
2019-02-03T07:57:48.656Z,77.95
2019-02-03T08:03:25.535Z,79.10
2019-02-03T08:05:54.013Z,81.87
2019-02-03T08:08:21.628Z,74.22
2019-02-03T08:10:49.033Z,76.97
2019-02-03T08:13:16.525Z,71.42
2019-02-03T08:15:43.860Z,78.92
2019-02-03T08:18:11.307Z,70.62
2019-02-03T08:20:38.766Z,73.40
2019-02-03T08:23:07.361Z,71.92
2019-02-03T08:25:57.304Z,76.87
2019-02-03T08:28:25.434Z,71.60
2019-02-03T08:30:54.139Z,73.85
2019-02-03T08:33:22.483Z,69.80
2019-02-03T08:35:51.019Z,89.20
2019-02-03T08:38:19.392Z,68.45
2019-02-03T08:40:47.480Z,70.67
2019-02-03T08:43:15.726Z,72.30
2019-02-03T08:45:44.244Z,66.55
2019-02-03T08:48:13.365Z,76.15
2019-02-03T08:50:42.037Z,60.05
2019-02-03T08:53:09.806Z,71.25
2019-02-03T08:55:37.450Z,64.35
2019-02-03T08:58:05.651Z,66.47
2019-02-03T12:02:06.943Z,22.93
2019-02-03T12:04:34.379Z,22.15
2019-02-03T12:07:01.803Z,21.33
2019-02-03T12:09:29.244Z,18.73
2019-02-03T12:12:01.401Z,18.27
2019-02-03T12:14:25.684Z,18.80
2019-02-03T12:16:53.147Z,19.87
2019-02-03T12:19:20.556Z,21.60
2019-02-03T12:21:47.968Z,18.70
2019-02-03T12:24:15.862Z,19.32
2019-02-03T12:26:43.442Z,18.73
2019-02-03T12:29:11.352Z,19.07
2019-02-03T12:31:38.773Z,17.85
2019-02-03T12:34:06.264Z,18.65
2019-02-03T12:36:33.726Z,18.15
2019-02-03T12:39:01.696Z,18.27
2019-02-03T12:41:29.201Z,23.80
2019-02-03T12:43:56.684Z,14.38
2019-02-03T12:46:24.122Z,15.90
2019-02-03T12:48:51.571Z,16.20
2019-02-03T12:51:19.030Z,15.05
2019-02-03T12:53:46.398Z,14.50
2019-02-03T12:56:13.910Z,15.60
2019-02-03T12:58:41.360Z,19.20
2019-02-03T13:01:08.832Z,19.40
2019-02-03T13:03:38.018Z,18.62
2019-02-03T13:06:08.106Z,16.52
2019-02-03T13:08:35.320Z,13.85
2019-02-03T13:11:03.227Z,12.60
2019-02-03T13:13:30.681Z,12.98
2019-02-03T13:15:58.946Z,13.35
2019-02-03T13:18:26.424Z,14.63
2019-02-03T13:20:53.816Z,13.90
2019-02-03T13:23:21.259Z,12.65
2019-02-03T13:25:49.639Z,13.32
2019-02-03T13:28:17.027Z,13.00
2019-02-03T13:30:45.971Z,12.55
2019-02-03T13:33:13.523Z,12.03
2019-02-03T13:35:41.003Z,12.23
2019-02-03T13:38:08.579Z,11.73
2019-02-03T13:40:36.014Z,10.68
2019-02-03T13:43:03.470Z,12.45
2019-02-03T13:45:30.961Z,13.62
2019-02-03T13:47:59.035Z,10.15
2019-02-03T13:50:27.159Z,13.25
2019-02-03T13:52:55.267Z,11.70
2019-02-03T13:55:22.820Z,10.28
2019-02-03T13:57:50.305Z,11.10
2019-02-03T14:00:19.244Z,10.48
2019-02-03T14:02:46.629Z,12.10
2019-02-03T14:05:14.121Z,11.48
2019-02-03T14:07:41.612Z,15.80
2019-02-03T14:10:10.559Z,10.32
2019-02-03T14:12:48.641Z,12.78
2019-02-03T14:15:08.096Z,9.83
2019-02-03T14:17:35.588Z,11.97
2019-02-03T14:20:03.679Z,10.18
2019-02-03T14:22:31.123Z,12.60
2019-02-03T14:24:58.528Z,12.43
2019-02-03T14:27:25.945Z,10.32
2019-02-03T14:29:53.520Z,8.70
2019-02-03T14:32:21.303Z,11.60
2019-02-03T14:34:48.705Z,8.85
2019-02-03T14:37:16.091Z,8.15
2019-02-03T14:39:43.539Z,9.40
2019-02-03T14:42:10.931Z,11.97
2019-02-03T14:44:38.330Z,9.18
2019-02-03T14:47:06.612Z,12.15
2019-02-03T14:49:34.025Z,11.20
2019-02-03T14:52:03.027Z,8.93
2019-02-03T14:54:30.648Z,9.48
2019-02-03T14:56:58.075Z,10.58
2019-02-03T14:59:25.502Z,13.58
2019-02-03T15:01:52.901Z,9.68
2019-02-03T15:04:20.359Z,10.63
2019-02-03T15:06:47.834Z,8.48
2019-02-03T15:09:15.298Z,12.53
2019-02-03T15:11:42.698Z,51.00
2019-02-03T15:14:10.179Z,22.20
2019-02-03T15:16:37.619Z,22.37
2019-02-03T15:19:05.337Z,14.35
2019-02-03T15:21:32.792Z,12.35
2019-02-03T15:24:00.190Z,17.73
2019-02-03T15:26:27.627Z,12.33
2019-02-03T15:28:55.021Z,10.40
2019-02-03T15:31:22.443Z,11.20
2019-02-03T15:33:49.844Z,13.10
2019-02-03T15:36:17.307Z,9.53
2019-02-03T15:38:44.731Z,13.85
2019-02-03T15:41:12.135Z,9.95
2019-02-03T15:43:39.563Z,11.75
2019-02-03T15:46:08.003Z,11.78
2019-02-03T15:48:35.635Z,10.82
2019-02-03T15:51:03.027Z,15.58
2019-02-03T15:53:30.464Z,12.03
2019-02-03T15:55:57.847Z,9.35
2019-02-03T15:58:25.245Z,17.50
2019-02-03T16:00:53.131Z,14.83
2019-02-03T16:03:20.588Z,12.03
2019-02-03T16:05:48.311Z,11.10
2019-02-03T16:08:15.701Z,9.75
2019-02-03T16:10:43.217Z,17.55
2019-02-03T16:13:11.083Z,13.38
2019-02-03T16:15:38.475Z,8.98
2019-02-03T16:18:06.370Z,17.37
2019-02-03T16:20:33.816Z,12.07
2019-02-03T16:23:01.235Z,12.37
2019-02-03T16:25:28.702Z,11.55
2019-02-03T16:27:56.230Z,10.60
2019-02-03T16:30:25.180Z,12.55
2019-02-03T16:32:52.571Z,10.20
2019-02-03T16:35:20.252Z,10.68
2019-02-03T16:37:47.649Z,11.97
2019-02-03T16:40:19.632Z,12.23
2019-02-03T16:42:47.190Z,7.25
2019-02-03T16:45:14.838Z,12.80
2019-02-03T16:47:42.272Z,11.22
2019-02-03T16:50:13.988Z,11.57
2019-02-03T16:52:41.416Z,11.45
2019-02-03T16:55:10.187Z,8.18
2019-02-03T16:57:37.571Z,12.10
2019-02-03T17:00:07.007Z,9.15
2019-02-03T17:02:34.400Z,7.70
2019-02-03T17:05:01.790Z,13.15
2019-02-03T17:07:29.202Z,10.28
2019-02-03T17:09:56.937Z,15.88
2019-02-03T17:12:24.343Z,13.25
2019-02-03T17:14:51.740Z,11.45
2019-02-03T17:17:19.276Z,13.15
2019-02-03T17:19:46.679Z,14.60
2019-02-03T17:22:14.178Z,13.40
2019-02-03T17:24:41.554Z,9.85
2019-02-03T17:27:08.954Z,11.10
2019-02-03T17:29:36.360Z,13.28
2019-02-03T17:32:03.820Z,12.10
2019-02-03T17:34:31.250Z,14.85
2019-02-03T17:36:58.632Z,11.25
2019-02-03T17:39:26.078Z,11.40
2019-02-03T17:41:53.793Z,17.75
2019-02-03T17:44:21.228Z,11.65
2019-02-03T17:46:48.656Z,11.75
2019-02-03T17:49:16.697Z,16.48
2019-02-03T17:51:44.258Z,18.37
2019-02-03T17:54:11.720Z,10.45
2019-02-03T17:56:39.178Z,16.42
2019-02-03T17:59:06.968Z,11.93
2019-02-03T18:01:34.403Z,12.73
2019-02-03T18:04:01.826Z,18.67
2019-02-03T18:06:29.326Z,13.03
2019-02-03T18:08:56.768Z,11.70
2019-02-03T18:11:24.168Z,15.15
2019-02-03T18:13:51.575Z,13.05
2019-02-03T18:16:18.980Z,16.48
2019-02-03T18:18:46.401Z,11.88
2019-02-03T18:21:13.826Z,12.70
2019-02-03T18:23:41.254Z,11.50
2019-02-03T18:26:08.640Z,15.15
2019-02-03T18:28:36.031Z,9.03
2019-02-03T18:31:04.115Z,13.30
2019-02-03T18:33:31.490Z,9.88
2019-02-03T18:35:58.919Z,11.83
2019-02-03T18:38:26.345Z,11.73
2019-02-03T18:40:53.786Z,12.45
2019-02-03T18:43:21.240Z,12.88
2019-02-03T18:45:48.659Z,10.60
2019-02-03T18:48:16.556Z,12.75
2019-02-03T18:50:43.967Z,11.83
2019-02-03T18:53:11.367Z,12.73
2019-02-03T18:55:42.724Z,14.18
2019-02-03T18:58:10.215Z,12.10
2019-02-03T19:00:38.310Z,14.18
2019-02-03T19:03:07.380Z,11.83
2019-02-03T19:05:35.661Z,11.68
2019-02-03T19:08:03.162Z,12.88
2019-02-03T19:10:32.837Z,15.43
2019-02-03T19:12:59.724Z,11.00
2019-02-03T19:15:28.618Z,12.88
2019-02-03T19:17:56.528Z,10.05
2019-02-03T19:20:25.498Z,12.82
2019-02-03T19:22:52.901Z,17.82
2019-02-03T19:25:20.700Z,11.25
2019-02-03T19:27:48.470Z,11.68
2019-02-03T19:30:17.455Z,13.43
2019-02-03T19:32:44.854Z,11.18
2019-02-03T19:35:13.565Z,13.53
2019-02-03T19:37:41.060Z,15.08
2019-02-03T19:40:10.015Z,13.13
2019-02-03T19:42:37.462Z,15.55
2019-02-03T19:45:06.619Z,11.93
2019-02-03T19:47:34.226Z,15.00
2019-02-03T19:50:01.956Z,21.12
2019-02-03T19:52:29.401Z,14.18
2019-02-03T19:54:56.908Z,14.63
2019-02-03T19:57:24.317Z,12.20
2019-02-03T19:59:51.744Z,20.17
2019-02-03T20:02:19.180Z,16.93
2019-02-03T20:04:46.949Z,16.10
2019-02-03T20:07:14.412Z,14.05
2019-02-03T20:09:41.812Z,15.38
2019-02-03T20:12:09.245Z,15.15
2019-02-03T20:14:36.641Z,13.65
2019-02-03T20:17:04.122Z,13.35
2019-02-03T20:19:31.541Z,16.52
2019-02-03T20:21:59.386Z,13.80
2019-02-03T20:24:26.812Z,12.68
2019-02-03T20:26:54.265Z,18.25
2019-02-03T20:29:21.676Z,13.88
2019-02-03T20:31:49.162Z,15.58
2019-02-03T20:34:16.603Z,13.22
2019-02-03T20:36:43.986Z,11.95
2019-02-03T20:39:11.973Z,13.65
2019-02-03T20:41:39.365Z,16.50
2019-02-03T20:44:06.784Z,13.48
2019-02-03T20:46:34.204Z,13.45
2019-02-03T20:49:01.633Z,16.60
2019-02-03T20:51:29.043Z,17.12
2019-02-03T20:53:56.443Z,15.83
2019-02-03T20:56:24.184Z,13.93
2019-02-03T20:58:51.574Z,19.25
2019-02-03T21:01:19.019Z,20.68
2019-02-03T21:03:46.511Z,12.30
2019-02-03T21:06:13.907Z,14.00
2019-02-03T21:08:41.331Z,13.50
2019-02-03T21:11:08.792Z,12.53
2019-02-03T21:13:36.188Z,17.35
2019-02-03T21:16:03.673Z,13.28
2019-02-03T21:18:31.067Z,14.90
2019-02-03T21:20:58.502Z,13.62
2019-02-03T21:23:25.880Z,14.75
2019-02-03T21:25:53.343Z,15.05
2019-02-03T21:28:20.735Z,11.18
2019-02-03T21:30:49.024Z,12.80
2019-02-03T21:33:16.411Z,12.28
2019-02-03T21:35:43.895Z,10.98
2019-02-03T21:38:12.076Z,9.80
2019-02-03T21:40:39.600Z,11.08
2019-02-03T21:43:08.360Z,12.00
2019-02-03T21:45:44.221Z,11.75
2019-02-03T21:48:05.456Z,13.45
2019-02-03T21:50:32.894Z,13.15
2019-02-03T21:53:00.304Z,12.88
2019-02-03T21:55:27.825Z,9.75
2019-02-03T21:57:55.252Z,11.53
2019-02-03T22:00:30.463Z,12.50
2019-02-03T22:02:58.176Z,11.93
2019-02-03T22:05:25.660Z,9.13
2019-02-03T22:07:55.913Z,9.60
2019-02-03T22:10:26.894Z,10.43
2019-02-03T22:12:55.969Z,10.90
2019-02-03T22:15:23.412Z,11.05
2019-02-03T22:17:50.869Z,9.58
2019-02-03T22:20:19.380Z,14.43
2019-02-03T22:22:46.842Z,12.43
2019-02-03T22:25:14.243Z,15.83
2019-02-03T22:27:41.736Z,10.55
2019-02-03T22:30:10.979Z,13.50
2019-02-03T22:32:38.366Z,9.93
2019-02-03T22:35:07.886Z,14.23
2019-02-03T22:37:35.314Z,10.75
2019-02-03T22:40:02.895Z,10.03
2019-02-03T22:42:30.275Z,9.03
2019-02-03T22:44:58.010Z,16.17
2019-02-03T22:47:25.392Z,9.20
2019-02-03T22:49:52.899Z,14.38
2019-02-03T22:52:20.329Z,11.08
2019-02-03T22:54:49.602Z,19.57
2019-02-03T22:57:17.236Z,14.30
2019-02-03T22:59:44.689Z,12.18
2019-02-03T23:02:12.156Z,13.45
2019-02-03T23:04:39.576Z,14.43
2019-02-03T23:07:06.961Z,9.40
2019-02-03T23:09:34.347Z,11.15
2019-02-03T23:12:03.418Z,13.32
2019-02-03T23:14:31.031Z,10.80
2019-02-03T23:16:58.514Z,15.45
2019-02-03T23:19:27.903Z,11.33
2019-02-03T23:21:57.460Z,13.55
2019-02-03T23:24:26.075Z,8.78
2019-02-03T23:26:56.335Z,10.48
2019-02-03T23:29:25.444Z,8.13
2019-02-03T23:31:53.866Z,8.28
2019-02-03T23:34:23.848Z,8.75
2019-02-03T23:36:52.368Z,12.13
2019-02-03T23:39:20.117Z,10.05
2019-02-03T23:41:47.528Z,12.30
2019-02-03T23:44:16.867Z,7.05
2019-02-03T23:46:44.603Z,9.95
2019-02-03T23:49:11.997Z,9.53
2019-02-03T23:51:39.421Z,10.60
2019-02-03T23:54:06.856Z,8.85
2019-02-03T23:56:34.277Z,9.60
2019-02-03T23:59:01.666Z,8.23
